createdAt,value
2022-12-08T00:04:42.899Z,0
2022-12-08T00:10:00.102Z,0
2022-12-08T00:14:24.304Z,0
2022-12-08T00:19:16.659Z,0
2022-12-08T00:24:27.080Z,0
2022-12-08T00:29:38.099Z,0
2022-12-08T00:34:47.853Z,0
2022-12-08T00:39:57.623Z,0
2022-12-08T00:45:06.128Z,0
2022-12-08T00:50:14.580Z,0
2022-12-08T00:55:23.043Z,0
2022-12-08T01:00:33.499Z,0
2022-12-08T01:05:43.214Z,0
2022-12-08T01:10:53.552Z,0
2022-12-08T01:16:00.812Z,0
2022-12-08T01:21:09.926Z,0
2022-12-08T01:26:19.731Z,0
2022-12-08T01:31:28.578Z,0
2022-12-08T01:36:36.655Z,0
2022-12-08T01:41:45.143Z,0
2022-12-08T01:46:54.896Z,0
2022-12-08T01:52:04.027Z,0
2022-12-08T01:57:12.528Z,0
2022-12-08T02:02:22.485Z,0
2022-12-08T02:07:32.044Z,0
2022-12-08T02:12:41.147Z,0
2022-12-08T02:17:49.613Z,0
2022-12-08T02:22:58.763Z,0
2022-12-08T02:28:07.866Z,0
2022-12-08T02:33:18.297Z,0
2022-12-08T02:38:28.049Z,0
2022-12-08T02:43:37.130Z,0
2022-12-08T02:48:46.889Z,0
2022-12-08T02:53:56.811Z,0
2022-12-08T02:59:06.413Z,0
2022-12-08T03:04:16.179Z,0
2022-12-08T03:09:26.571Z,0
2022-12-08T03:14:37.013Z,0
2022-12-08T03:19:46.112Z,0
2022-12-08T03:24:55.928Z,0
2022-12-08T03:30:06.592Z,0
2022-12-08T03:35:15.400Z,0
2022-12-08T03:40:26.019Z,0
2022-12-08T03:45:41.502Z,0
2022-12-08T03:50:55.859Z,0
2022-12-08T03:56:11.915Z,0
2022-12-08T04:01:28.137Z,0
2022-12-08T04:06:44.257Z,0
2022-12-08T04:11:59.751Z,0
2022-12-08T04:17:15.948Z,0
2022-12-08T04:22:31.463Z,0
2022-12-08T04:27:46.316Z,0
2022-12-08T04:33:01.275Z,0
2022-12-08T04:37:27.384Z,0
2022-12-08T04:42:19.057Z,0
2022-12-08T04:47:28.817Z,0
2022-12-08T04:52:38.580Z,0
2022-12-08T04:57:47.725Z,0
2022-12-08T05:02:56.438Z,0
2022-12-08T05:08:05.000Z,0
2022-12-08T05:13:14.408Z,0
2022-12-08T05:18:22.901Z,0
2022-12-08T05:23:32.013Z,0
2022-12-08T05:28:44.439Z,0
2022-12-08T05:33:49.621Z,0
2022-12-08T05:38:58.096Z,0
2022-12-08T05:44:06.625Z,0
2022-12-08T05:49:15.687Z,0
2022-12-08T05:54:26.138Z,0
2022-12-08T05:59:34.587Z,0
2022-12-08T06:04:43.055Z,0
2022-12-08T06:09:51.542Z,0
2022-12-08T06:15:00.680Z,0
2022-12-08T06:20:09.150Z,0
2022-12-08T06:25:17.612Z,0
2022-12-08T06:30:26.768Z,0
2022-12-08T06:35:35.235Z,0
2022-12-08T06:40:43.709Z,0
2022-12-08T06:45:53.022Z,0
2022-12-08T06:51:01.326Z,0
2022-12-08T06:56:09.803Z,0
2022-12-08T07:01:19.867Z,1
2022-12-08T07:06:28.680Z,1
2022-12-08T07:11:37.798Z,3
2022-12-08T07:16:47.238Z,5
2022-12-08T07:21:57.547Z,7
2022-12-08T07:27:13.005Z,7
2022-12-08T07:32:28.736Z,14
2022-12-08T07:37:45.993Z,46
2022-12-08T07:43:11.110Z,50
2022-12-08T07:48:26.632Z,50
2022-12-08T07:53:42.758Z,60
2022-12-08T07:58:57.679Z,75
2022-12-08T08:03:07.384Z,113
2022-12-08T08:08:15.750Z,125
2022-12-08T08:13:23.382Z,102
2022-12-08T08:18:33.157Z,110
2022-12-08T08:23:42.255Z,109
2022-12-08T08:28:51.469Z,120
2022-12-08T08:34:01.789Z,116
2022-12-08T08:39:10.260Z,124
2022-12-08T08:44:20.717Z,144
2022-12-08T08:49:29.779Z,167
2022-12-08T08:54:39.578Z,166
2022-12-08T08:59:47.401Z,184
2022-12-08T09:04:56.107Z,150
2022-12-08T09:10:06.793Z,205
2022-12-08T09:15:16.022Z,212
2022-12-08T09:20:25.804Z,175
2022-12-08T09:25:34.916Z,146
2022-12-08T09:30:44.030Z,154
2022-12-08T09:35:53.182Z,135
2022-12-08T09:41:02.899Z,195
2022-12-08T09:46:13.539Z,264
2022-12-08T09:51:23.052Z,228
2022-12-08T09:56:32.967Z,208
2022-12-08T10:01:41.801Z,199
2022-12-08T10:06:49.790Z,245
2022-12-08T10:11:58.284Z,285
2022-12-08T10:17:08.341Z,251
2022-12-08T10:22:19.263Z,243
2022-12-08T10:27:37.950Z,346
2022-12-08T10:32:45.124Z,383
2022-12-08T10:37:45.159Z,402
2022-12-08T10:42:54.905Z,409
2022-12-08T10:48:04.692Z,446
2022-12-08T10:53:13.782Z,414
2022-12-08T10:58:24.213Z,610
2022-12-08T11:03:33.294Z,580
2022-12-08T11:08:42.414Z,398
2022-12-08T11:13:50.936Z,339
2022-12-08T11:19:00.660Z,310
2022-12-08T11:24:11.702Z,315
2022-12-08T11:29:21.468Z,290
2022-12-08T11:34:29.964Z,313
2022-12-08T11:39:37.780Z,345
2022-12-08T11:44:46.268Z,295
2022-12-08T11:49:56.176Z,234
2022-12-08T11:55:05.931Z,224
2022-12-08T12:00:15.067Z,222
2022-12-08T12:10:34.760Z,202
2022-12-08T12:15:43.675Z,150
2022-12-08T12:20:52.887Z,165
2022-12-08T12:26:02.549Z,154
2022-12-08T12:27:40.970Z,147
2022-12-08T12:32:48.811Z,152
2022-12-08T12:37:58.602Z,143
2022-12-08T12:43:07.696Z,120
2022-12-08T12:48:14.895Z,145
2022-12-08T12:53:23.371Z,112
2022-12-08T12:58:33.166Z,119
2022-12-08T13:03:42.264Z,125
2022-12-08T13:08:52.063Z,126
2022-12-08T13:14:00.504Z,120
2022-12-08T13:19:10.267Z,145
2022-12-08T13:24:20.047Z,177
2022-12-08T13:29:29.826Z,193
2022-12-08T13:34:38.288Z,246
2022-12-08T13:39:46.131Z,228
2022-12-08T13:47:24.993Z,288
2022-12-08T14:00:22.589Z,284
2022-12-08T14:06:13.835Z,282
2022-12-08T14:10:41.461Z,247
2022-12-08T14:15:51.461Z,243
2022-12-08T14:21:22.278Z,237
2022-12-08T14:26:09.452Z,220
2022-12-08T14:31:18.841Z,178
2022-12-08T14:36:28.337Z,123
2022-12-08T14:41:38.773Z,80
2022-12-08T14:46:49.447Z,63
2022-12-08T14:51:57.654Z,47
2022-12-08T14:57:06.740Z,38
2022-12-08T15:02:15.220Z,31
2022-12-08T15:07:24.362Z,17
2022-12-08T15:12:34.091Z,12
2022-12-08T15:17:43.886Z,8
2022-12-08T15:22:52.380Z,6
2022-12-08T15:28:01.512Z,4
2022-12-08T15:33:10.645Z,3
2022-12-08T15:38:19.060Z,2
2022-12-08T15:43:28.178Z,2
2022-12-08T15:48:36.691Z,1
2022-12-08T15:53:45.156Z,0
2022-12-08T15:58:58.568Z,0
2022-12-08T16:06:31.349Z,0
2022-12-08T16:09:14.222Z,0
2022-12-08T16:16:01.373Z,0
2022-12-08T16:19:28.827Z,0
2022-12-08T16:24:37.967Z,0
2022-12-08T16:29:46.428Z,0
2022-12-08T16:34:56.179Z,0
2022-12-08T16:40:05.600Z,0
2022-12-08T16:45:14.441Z,0
2022-12-08T16:50:25.452Z,0
2022-12-08T16:55:33.954Z,0
2022-12-08T17:00:43.936Z,0
2022-12-08T17:05:52.179Z,0
2022-12-08T17:11:01.307Z,0
2022-12-08T17:16:09.340Z,0
2022-12-08T17:21:21.456Z,0
2022-12-08T17:26:29.967Z,0
2022-12-08T17:31:39.356Z,0
2022-12-08T17:36:48.849Z,0
2022-12-08T17:41:59.210Z,0
2022-12-08T17:47:08.373Z,0
2022-12-08T17:52:18.100Z,0
2022-12-08T17:57:27.893Z,0
2022-12-08T18:02:37.048Z,0
2022-12-08T18:07:47.646Z,0
2022-12-08T18:12:57.134Z,0
2022-12-08T18:18:06.249Z,0
2022-12-08T18:23:14.764Z,0
2022-12-08T18:28:24.495Z,0
2022-12-08T18:33:32.343Z,0
2022-12-08T18:38:40.860Z,0
2022-12-08T18:43:49.472Z,0
2022-12-08T18:48:58.420Z,0
2022-12-08T18:54:07.564Z,0
2022-12-08T18:59:16.015Z,0
2022-12-08T19:04:31.904Z,0
2022-12-08T19:09:32.981Z,0
2022-12-08T19:14:42.125Z,0
2022-12-08T19:19:50.592Z,0
2022-12-08T19:25:01.018Z,0
2022-12-08T19:30:10.361Z,0
2022-12-08T19:35:19.225Z,0
2022-12-08T19:40:29.032Z,0
2022-12-08T19:45:39.078Z,0
2022-12-08T19:50:47.906Z,0
2022-12-08T19:55:56.986Z,0
2022-12-08T20:01:08.500Z,0
2022-12-08T20:06:17.136Z,0
2022-12-08T20:11:25.628Z,0
2022-12-08T20:16:36.365Z,0
2022-12-08T20:21:45.176Z,0
2022-12-08T20:26:54.329Z,0
2022-12-08T20:32:04.461Z,0
2022-12-08T20:37:12.543Z,0
2022-12-08T20:42:22.940Z,0
2022-12-08T20:47:33.059Z,0
2022-12-08T20:52:42.768Z,0
2022-12-08T20:57:53.129Z,0
2022-12-08T21:03:03.541Z,0
2022-12-08T21:08:13.036Z,0
2022-12-08T21:13:21.253Z,0
2022-12-08T21:18:40.223Z,0
2022-12-08T21:23:39.951Z,0
2022-12-08T21:28:49.140Z,0
2022-12-08T21:33:58.804Z,0
2022-12-08T21:39:08.539Z,0
2022-12-08T21:44:17.152Z,0
2022-12-08T21:49:25.639Z,0
2022-12-08T21:54:34.449Z,0
2022-12-08T21:59:44.455Z,0
2022-12-08T22:04:56.151Z,0
2022-12-08T22:10:06.917Z,0
2022-12-08T22:15:13.749Z,0
2022-12-08T22:20:22.268Z,0
2022-12-08T22:25:31.880Z,0
2022-12-08T22:30:40.970Z,0
2022-12-08T22:35:50.705Z,0
2022-12-08T22:41:00.522Z,0
2022-12-08T22:46:12.902Z,0
2022-12-08T22:51:17.561Z,0
2022-12-08T22:56:25.937Z,0
2022-12-08T23:01:36.212Z,0
2022-12-08T23:06:44.854Z,0
2022-12-08T23:11:55.863Z,0
2022-12-08T23:17:06.830Z,0
2022-12-08T23:22:15.543Z,0
2022-12-08T23:27:23.848Z,0
2022-12-08T23:32:33.369Z,0
2022-12-08T23:37:43.370Z,0
2022-12-08T23:42:53.155Z,0
2022-12-08T23:48:02.884Z,0
2022-12-08T23:53:11.272Z,0
2022-12-08T23:58:21.078Z,0
